createdAt,value
2023-03-13T00:01:57.947Z,17.88
2023-03-13T00:06:50.663Z,14.27
2023-03-13T00:11:44.880Z,12.05
2023-03-13T00:16:39.797Z,17.45
2023-03-13T00:21:33.156Z,16.63
2023-03-13T00:26:27.314Z,16.02
2023-03-13T00:31:22.751Z,18.77
2023-03-13T00:36:18.117Z,17.85
2023-03-13T00:41:31.520Z,13.82
2023-03-13T00:46:26.670Z,17.35
2023-03-13T00:51:21.004Z,16.42
2023-03-13T00:56:15.301Z,14.95
2023-03-13T01:01:12.408Z,20.30
2023-03-13T01:06:08.685Z,16.90
2023-03-13T01:11:07.949Z,12.80
2023-03-13T01:16:15.427Z,22.20
2023-03-13T01:21:08.113Z,19.42
2023-03-13T01:26:01.392Z,19.05
2023-03-13T01:30:54.483Z,16.58
2023-03-13T01:35:47.632Z,20.90
2023-03-13T01:40:46.124Z,16.85
2023-03-13T01:46:04.801Z,19.73
2023-03-13T01:51:11.749Z,20.00
2023-03-13T01:56:06.795Z,17.08
2023-03-13T02:01:06.309Z,15.18
2023-03-13T02:06:00.637Z,17.27
2023-03-13T02:11:31.945Z,16.50
2023-03-13T02:16:25.731Z,16.10
2023-03-13T02:21:44.813Z,21.83
2023-03-13T02:26:45.590Z,15.38
2023-03-13T02:31:39.232Z,16.60
2023-03-13T02:36:32.662Z,13.70
2023-03-13T02:41:26.017Z,12.90
2023-03-13T02:46:22.000Z,15.20
2023-03-13T02:51:21.391Z,17.80
2023-03-13T02:56:15.920Z,16.13
2023-03-13T03:01:09.450Z,16.25
2023-03-13T03:06:07.715Z,18.50
2023-03-13T03:11:00.557Z,15.60
2023-03-13T03:15:54.693Z,20.25
2023-03-13T03:20:47.914Z,28.33
2023-03-13T03:25:41.096Z,20.05
2023-03-13T03:30:34.217Z,18.08
2023-03-13T03:35:27.492Z,18.48
2023-03-13T03:40:21.812Z,16.70
2023-03-13T03:45:15.210Z,14.85
2023-03-13T03:50:11.436Z,16.08
2023-03-13T03:55:13.898Z,15.02
2023-03-13T04:00:08.658Z,15.65
2023-03-13T04:05:06.715Z,14.23
2023-03-13T04:10:01.326Z,17.25
2023-03-13T04:15:01.253Z,18.48
2023-03-13T04:19:54.716Z,14.88
2023-03-13T04:24:47.461Z,15.52
2023-03-13T04:29:41.397Z,17.17
2023-03-13T04:35:10.446Z,16.52
2023-03-13T04:40:38.615Z,15.73
2023-03-13T04:45:50.524Z,15.07
2023-03-13T04:51:12.509Z,14.77
2023-03-13T04:56:41.800Z,16.85
2023-03-13T05:01:46.071Z,17.17
2023-03-13T05:06:58.895Z,15.63
2023-03-13T05:12:12.548Z,14.77
2023-03-13T05:17:27.739Z,22.45
2023-03-13T05:22:33.749Z,16.88
2023-03-13T05:33:19.646Z,18.42
2023-03-13T05:38:22.247Z,18.42
2023-03-13T05:43:32.620Z,17.60
2023-03-13T05:48:39.353Z,17.33
2023-03-13T05:53:53.082Z,17.55
2023-03-13T05:59:02.961Z,21.00
2023-03-13T06:04:15.110Z,19.48
2023-03-13T06:09:08.615Z,26.42
2023-03-13T06:14:01.225Z,14.52
2023-03-13T06:19:03.175Z,17.77
2023-03-13T06:23:58.279Z,23.23
2023-03-13T06:28:52.375Z,19.80
2023-03-13T06:33:45.744Z,32.47
2023-03-13T06:38:39.596Z,23.02
2023-03-13T06:43:32.945Z,16.15
2023-03-13T06:48:26.842Z,15.60
2023-03-13T06:53:20.812Z,18.73
2023-03-13T06:58:25.427Z,18.85
2023-03-13T07:03:24.616Z,22.80
2023-03-13T07:08:18.086Z,18.95
2023-03-13T07:13:11.076Z,21.50
2023-03-13T07:18:05.526Z,22.02
2023-03-13T07:22:59.908Z,18.17
2023-03-13T07:27:54.033Z,24.95
2023-03-13T07:32:47.046Z,25.95
2023-03-13T07:37:40.811Z,17.10
2023-03-13T07:42:34.671Z,18.55
2023-03-13T07:47:27.633Z,14.55
2023-03-13T07:52:20.837Z,15.48
2023-03-13T07:57:13.938Z,18.52
2023-03-13T08:02:08.790Z,17.85
2023-03-13T08:07:02.668Z,14.40
2023-03-13T08:11:56.666Z,18.05
2023-03-13T08:16:50.231Z,14.82
2023-03-13T08:21:42.869Z,14.75
2023-03-13T08:26:36.611Z,20.42
2023-03-13T08:31:50.052Z,21.50
2023-03-13T08:36:42.797Z,17.50
2023-03-13T08:41:37.080Z,16.13
2023-03-13T08:46:31.763Z,18.02
2023-03-13T08:51:26.568Z,26.15
2023-03-13T08:56:21.667Z,27.98
2023-03-13T09:01:15.339Z,28.23
2023-03-13T09:06:08.944Z,24.08
2023-03-13T09:11:04.755Z,26.73
2023-03-13T09:16:01.199Z,22.77
2023-03-13T09:20:53.897Z,23.73
2023-03-13T09:25:46.037Z,20.80
2023-03-13T09:30:39.633Z,20.25
2023-03-13T09:35:33.220Z,15.32
2023-03-13T09:40:26.798Z,16.83
2023-03-13T09:45:41.533Z,17.52
2023-03-13T09:50:37.279Z,23.90
2023-03-13T09:55:32.974Z,14.30
2023-03-13T10:00:34.078Z,19.73
2023-03-13T10:05:30.354Z,22.45
2023-03-13T10:10:40.511Z,19.05
2023-03-13T10:15:39.814Z,16.63
2023-03-13T10:20:37.132Z,15.80
2023-03-13T10:25:41.235Z,13.30
2023-03-13T10:30:36.136Z,10.55
2023-03-13T10:35:35.195Z,12.18
2023-03-13T10:40:29.336Z,12.30
2023-03-13T10:45:25.347Z,14.00
2023-03-13T10:50:22.080Z,12.90
2023-03-13T10:55:20.871Z,18.92
2023-03-13T11:00:28.122Z,15.52
2023-03-13T11:05:29.642Z,14.35
2023-03-13T11:10:25.887Z,10.40
2023-03-13T11:15:38.339Z,11.63
2023-03-13T11:20:37.525Z,11.98
2023-03-13T11:26:10.949Z,10.85
2023-03-13T11:31:05.549Z,13.70
2023-03-13T11:36:21.800Z,11.70
2023-03-13T11:41:29.904Z,14.35
2023-03-13T11:46:43.069Z,12.45
2023-03-13T11:51:53.163Z,16.50
2023-03-13T11:56:50.841Z,12.85
2023-03-13T12:01:54.071Z,13.75
2023-03-13T12:07:00.691Z,11.73
2023-03-13T12:11:59.813Z,12.27
2023-03-13T12:17:16.721Z,12.10
2023-03-13T12:22:21.358Z,13.03
2023-03-13T12:27:26.121Z,13.40
2023-03-13T12:32:20.668Z,11.93
2023-03-13T12:37:26.586Z,12.23
2023-03-13T12:42:58.471Z,14.30
2023-03-13T12:48:09.774Z,9.30
2023-03-13T12:53:19.780Z,8.98
2023-03-13T12:58:37.825Z,8.77
2023-03-13T13:04:03.191Z,11.30
2023-03-13T13:08:55.875Z,20.73
2023-03-13T13:13:49.134Z,12.15
2023-03-13T13:18:41.760Z,8.27
2023-03-13T13:23:35.158Z,14.55
2023-03-13T13:28:35.076Z,12.20
2023-03-13T13:33:31.666Z,9.70
2023-03-13T13:38:37.282Z,13.75
2023-03-13T13:43:40.940Z,8.32
2023-03-13T13:48:44.168Z,13.40
2023-03-13T13:53:45.923Z,15.98
2023-03-13T13:58:41.786Z,14.45
2023-03-13T14:03:42.879Z,12.35
2023-03-13T14:08:41.549Z,9.80
2023-03-13T14:13:34.880Z,11.45
2023-03-13T14:18:29.192Z,12.30
2023-03-13T14:24:00.736Z,10.63
2023-03-13T14:28:58.467Z,16.92
2023-03-13T14:33:51.284Z,11.05
2023-03-13T14:38:55.984Z,12.18
2023-03-13T14:43:56.262Z,10.30
2023-03-13T14:48:49.899Z,14.57
2023-03-13T14:53:54.360Z,12.73
2023-03-13T14:58:47.263Z,16.08
2023-03-13T15:04:19.305Z,10.18
2023-03-13T15:09:20.746Z,11.90
2023-03-13T15:14:38.610Z,10.50
2023-03-13T15:19:33.201Z,15.10
2023-03-13T15:24:31.959Z,14.45
2023-03-13T15:29:25.825Z,13.10
2023-03-13T15:34:26.022Z,22.15
2023-03-13T15:39:23.474Z,10.00
2023-03-13T15:44:16.706Z,16.38
2023-03-13T15:49:49.452Z,11.32
2023-03-13T15:55:02.469Z,25.38
2023-03-13T15:59:55.154Z,14.45
2023-03-13T16:04:48.782Z,11.57
2023-03-13T16:09:43.269Z,12.52
2023-03-13T16:14:37.515Z,16.88
2023-03-13T16:19:31.750Z,14.68
2023-03-13T16:24:25.578Z,15.38
2023-03-13T16:29:37.972Z,18.60
2023-03-13T16:35:10.388Z,18.77
2023-03-13T16:40:05.854Z,23.02
2023-03-13T16:45:19.582Z,18.60
2023-03-13T16:50:26.942Z,23.85
2023-03-13T16:55:21.782Z,23.17
2023-03-13T17:00:21.263Z,16.75
2023-03-13T17:05:15.988Z,40.05
2023-03-13T17:10:35.302Z,21.55
2023-03-13T17:15:30.801Z,29.83
2023-03-13T17:20:26.592Z,24.05
2023-03-13T17:25:20.193Z,17.30
2023-03-13T17:30:23.664Z,21.50
2023-03-13T17:35:17.880Z,16.48
2023-03-13T17:40:23.223Z,26.20
2023-03-13T17:45:16.941Z,24.48
2023-03-13T17:50:21.752Z,22.15
2023-03-13T17:55:15.023Z,21.55
2023-03-13T18:00:32.623Z,21.27
2023-03-13T18:05:25.292Z,21.85
2023-03-13T18:10:26.726Z,23.38
2023-03-13T18:15:21.142Z,28.13
2023-03-13T18:20:39.734Z,24.08
2023-03-13T18:25:33.803Z,19.55
2023-03-13T18:30:28.724Z,25.38
2023-03-13T18:35:22.229Z,23.83
2023-03-13T18:40:20.306Z,27.30
2023-03-13T18:45:21.859Z,32.47
2023-03-13T18:50:28.931Z,39.10
2023-03-13T18:55:22.538Z,29.92
2023-03-13T19:00:22.491Z,31.05
2023-03-13T19:05:16.197Z,31.63
2023-03-13T19:10:26.658Z,32.65
2023-03-13T19:15:19.734Z,26.02
2023-03-13T19:20:18.992Z,25.58
2023-03-13T19:25:13.296Z,32.78
2023-03-13T19:30:07.854Z,31.60
2023-03-13T19:35:01.979Z,27.20
2023-03-13T19:39:55.450Z,29.85
2023-03-13T19:44:48.696Z,23.45
2023-03-13T19:49:41.076Z,23.77
2023-03-13T19:54:34.929Z,25.05
2023-03-13T19:59:28.596Z,20.27
2023-03-13T20:04:21.862Z,23.88
2023-03-13T20:09:16.590Z,27.38
2023-03-13T20:14:09.408Z,18.05
2023-03-13T20:19:07.118Z,20.13
2023-03-13T20:24:00.301Z,21.75
2023-03-13T20:28:54.901Z,18.50
2023-03-13T20:33:49.130Z,20.75
2023-03-13T20:38:42.192Z,20.40
2023-03-13T20:43:35.391Z,15.25
2023-03-13T20:48:29.403Z,17.17
2023-03-13T20:53:24.312Z,16.70
2023-03-13T20:58:17.322Z,21.35
2023-03-13T21:03:10.777Z,19.90
2023-03-13T21:08:03.854Z,17.65
2023-03-13T21:12:58.181Z,19.67
2023-03-13T21:17:51.334Z,17.48
2023-03-13T21:22:45.090Z,19.65
2023-03-13T21:27:39.781Z,13.23
2023-03-13T21:32:32.881Z,18.23
2023-03-13T21:37:25.687Z,16.63
2023-03-13T21:42:20.292Z,17.15
2023-03-13T21:47:18.421Z,14.30
2023-03-13T21:52:11.634Z,18.63
2023-03-13T21:57:04.536Z,13.25
2023-03-13T22:01:59.080Z,14.63
2023-03-13T22:06:52.234Z,17.30
2023-03-13T22:11:45.928Z,18.15
2023-03-13T22:16:39.034Z,17.83
2023-03-13T22:21:32.432Z,14.93
2023-03-13T22:26:25.189Z,15.55
2023-03-13T22:31:19.351Z,15.68
2023-03-13T22:36:12.670Z,16.15
2023-03-13T22:41:08.277Z,16.08
2023-03-13T22:46:01.834Z,12.85
2023-03-13T22:51:08.069Z,10.45
2023-03-13T22:56:02.154Z,17.80
2023-03-13T23:00:55.189Z,15.13
2023-03-13T23:05:54.347Z,19.90
2023-03-13T23:10:47.865Z,17.10
2023-03-13T23:15:55.337Z,16.33
2023-03-13T23:20:49.887Z,13.67
2023-03-13T23:25:43.812Z,14.68
2023-03-13T23:30:37.542Z,12.95
2023-03-13T23:35:31.490Z,19.55
2023-03-13T23:40:24.410Z,14.50
2023-03-13T23:45:18.839Z,19.98
2023-03-13T23:50:16.327Z,17.20
2023-03-13T23:55:10.163Z,18.63
